createdAt,value
2019-03-25T00:01:54.825Z,7.27
2019-03-25T00:04:25.416Z,7.47
2019-03-25T00:06:55.768Z,6.97
2019-03-25T00:09:26.131Z,8.00
2019-03-25T00:11:56.516Z,7.63
2019-03-25T00:14:26.882Z,9.83
2019-03-25T00:16:57.232Z,9.73
2019-03-25T00:19:27.591Z,8.33
2019-03-25T00:21:58.063Z,8.13
2019-03-25T00:24:38.144Z,9.80
2019-03-25T00:27:00.462Z,8.53
2019-03-25T00:29:30.814Z,9.23
2019-03-25T00:32:01.247Z,8.97
2019-03-25T00:34:31.608Z,9.70
2019-03-25T00:37:02.009Z,10.33
2019-03-25T00:39:32.390Z,10.53
2019-03-25T00:42:02.756Z,10.43
2019-03-25T00:44:33.182Z,11.70
2019-03-25T00:47:03.537Z,11.83
2019-03-25T00:49:33.908Z,13.37
2019-03-25T00:52:04.293Z,12.03
2019-03-25T00:54:34.682Z,11.60
2019-03-25T00:57:05.060Z,9.30
2019-03-25T00:59:35.418Z,11.30
2019-03-25T01:02:05.788Z,11.27
2019-03-25T01:04:36.170Z,10.00
2019-03-25T01:07:06.528Z,12.43
2019-03-25T01:09:36.895Z,11.47
2019-03-25T01:12:07.243Z,12.03
2019-03-25T01:14:37.608Z,11.13
2019-03-25T01:17:07.957Z,10.93
2019-03-25T01:19:39.384Z,12.97
2019-03-25T01:22:09.734Z,11.30
2019-03-25T01:24:40.108Z,13.60
2019-03-25T01:27:10.496Z,14.63
2019-03-25T01:29:40.886Z,14.27
2019-03-25T01:32:11.246Z,14.17
2019-03-25T01:34:41.609Z,15.13
2019-03-25T01:37:12.014Z,14.53
2019-03-25T01:39:42.361Z,16.17
2019-03-25T01:42:12.809Z,16.13
2019-03-25T01:44:43.172Z,15.97
2019-03-25T01:47:13.542Z,14.67
2019-03-25T01:49:43.915Z,16.63
2019-03-25T01:52:14.329Z,16.20
2019-03-25T01:54:44.666Z,15.63
2019-03-25T01:57:15.148Z,15.80
2019-03-25T01:59:45.521Z,14.77
2019-03-25T02:02:16.957Z,15.50
2019-03-25T02:04:47.326Z,15.23
2019-03-25T02:07:17.672Z,13.33
2019-03-25T02:09:48.044Z,12.43
2019-03-25T02:12:18.403Z,12.43
2019-03-25T02:14:49.851Z,12.50
2019-03-25T02:17:20.300Z,13.87
2019-03-25T02:19:50.677Z,13.50
2019-03-25T02:22:21.101Z,13.20
2019-03-25T02:24:51.448Z,13.43
2019-03-25T02:27:21.841Z,13.10
2019-03-25T02:29:52.196Z,13.17
2019-03-25T02:32:22.665Z,14.30
2019-03-25T02:34:53.029Z,13.03
2019-03-25T02:37:23.560Z,12.17
2019-03-25T02:39:53.913Z,11.67
2019-03-25T02:42:24.279Z,12.53
2019-03-25T02:44:54.657Z,13.47
2019-03-25T02:47:25.063Z,13.03
2019-03-25T02:49:55.419Z,13.23
2019-03-25T02:52:25.797Z,13.03
2019-03-25T02:54:56.167Z,13.30
2019-03-25T02:57:26.546Z,13.00
2019-03-25T02:59:56.912Z,13.27
2019-03-25T03:02:27.263Z,12.63
2019-03-25T03:04:57.638Z,12.50
2019-03-25T03:07:28.037Z,12.23
2019-03-25T03:09:58.422Z,13.37
2019-03-25T03:12:28.795Z,13.23
2019-03-25T03:14:59.164Z,13.93
2019-03-25T03:17:30.325Z,14.83
2019-03-25T03:20:00.674Z,13.30
2019-03-25T03:22:31.037Z,14.20
2019-03-25T03:25:01.387Z,12.60
2019-03-25T03:27:31.735Z,11.67
2019-03-25T03:30:02.298Z,12.30
2019-03-25T03:32:33.725Z,12.27
2019-03-25T03:35:05.919Z,13.27
2019-03-25T03:37:36.289Z,15.90
2019-03-25T03:40:06.660Z,17.23
2019-03-25T03:42:37.034Z,13.60
2019-03-25T03:45:07.595Z,15.30
2019-03-25T03:47:37.992Z,14.43
2019-03-25T03:50:09.502Z,15.13
2019-03-25T03:52:39.925Z,14.63
2019-03-25T03:55:13.057Z,15.30
2019-03-25T03:57:43.414Z,14.77
2019-03-25T04:00:25.718Z,14.37
2019-03-25T04:02:56.102Z,13.60
2019-03-25T04:05:26.469Z,14.63
2019-03-25T04:07:56.813Z,13.60
2019-03-25T04:10:27.578Z,13.33
2019-03-25T04:12:57.976Z,12.57
2019-03-25T04:15:30.096Z,12.60
2019-03-25T04:18:00.449Z,11.87
2019-03-25T04:20:30.806Z,11.17
2019-03-25T04:23:01.188Z,11.23
2019-03-25T04:25:31.576Z,11.37
2019-03-25T04:28:01.944Z,11.73
2019-03-25T04:30:32.292Z,11.50
2019-03-25T04:33:02.668Z,11.43
2019-03-25T04:35:33.170Z,11.47
2019-03-25T04:38:04.352Z,9.90
2019-03-25T04:40:34.700Z,10.23
2019-03-25T04:43:05.075Z,11.17
2019-03-25T04:45:35.466Z,10.90
2019-03-25T04:48:06.922Z,10.17
2019-03-25T04:50:37.343Z,10.43
2019-03-25T04:53:07.693Z,10.90
2019-03-25T04:55:38.046Z,10.77
2019-03-25T04:58:08.418Z,10.70
2019-03-25T05:00:38.772Z,10.13
2019-03-25T05:03:09.143Z,11.57
2019-03-25T05:05:39.523Z,13.53
2019-03-25T05:08:09.894Z,13.37
2019-03-25T05:10:40.249Z,12.10
2019-03-25T05:13:10.609Z,11.97
2019-03-25T05:15:40.970Z,12.27
2019-03-25T05:18:11.324Z,13.17
2019-03-25T05:20:41.694Z,14.87
2019-03-25T05:23:12.071Z,15.90
2019-03-25T05:25:42.448Z,15.97
2019-03-25T05:28:12.811Z,16.13
2019-03-25T05:30:43.173Z,14.83
2019-03-25T05:33:13.549Z,13.20
2019-03-25T05:35:43.896Z,12.67
2019-03-25T05:38:14.248Z,14.10
2019-03-25T05:40:44.603Z,15.77
2019-03-25T05:43:14.974Z,17.53
2019-03-25T05:45:45.346Z,16.03
2019-03-25T05:48:15.897Z,14.63
2019-03-25T05:50:46.260Z,14.60
2019-03-25T05:53:16.771Z,13.30
2019-03-25T05:55:47.112Z,13.17
2019-03-25T05:58:17.541Z,12.53
2019-03-25T06:00:47.934Z,12.90
2019-03-25T06:03:18.580Z,16.23
2019-03-25T06:05:48.949Z,15.77
2019-03-25T06:08:22.389Z,14.23
2019-03-25T06:10:53.128Z,13.33
2019-03-25T06:13:23.507Z,12.30
2019-03-25T06:15:53.905Z,13.17
2019-03-25T06:18:24.271Z,12.73
2019-03-25T06:20:55.282Z,12.43
2019-03-25T06:23:26.464Z,12.37
2019-03-25T06:25:57.609Z,13.77
2019-03-25T06:28:28.056Z,12.50
2019-03-25T06:30:58.616Z,14.07
2019-03-25T06:33:28.989Z,14.40
2019-03-25T06:35:59.700Z,14.30
2019-03-25T06:38:33.384Z,12.33
2019-03-25T06:41:06.413Z,12.33
2019-03-25T06:43:38.435Z,13.47
2019-03-25T06:46:08.827Z,13.33
2019-03-25T06:48:39.356Z,13.20
2019-03-25T06:51:10.777Z,14.20
2019-03-25T06:53:41.277Z,12.33
2019-03-25T06:56:11.628Z,13.23
2019-03-25T06:58:42.010Z,13.03
2019-03-25T07:01:12.362Z,12.33
2019-03-25T07:03:42.747Z,11.27
2019-03-25T07:06:13.157Z,10.70
2019-03-25T07:08:43.545Z,10.77
2019-03-25T07:11:13.950Z,10.73
2019-03-25T07:13:44.295Z,12.30
2019-03-25T07:16:15.303Z,11.00
2019-03-25T07:18:45.704Z,10.97
2019-03-25T07:21:16.839Z,10.13
2019-03-25T07:23:47.450Z,10.37
2019-03-25T07:26:17.811Z,10.77
2019-03-25T07:28:48.233Z,10.40
2019-03-25T07:31:18.611Z,8.93
2019-03-25T07:33:48.974Z,9.13
2019-03-25T07:36:20.488Z,8.60
2019-03-25T07:38:51.108Z,8.50
2019-03-25T07:41:21.462Z,7.93
2019-03-25T07:43:51.892Z,7.43
2019-03-25T07:46:22.187Z,7.83
2019-03-25T07:48:52.620Z,7.37
2019-03-25T07:51:22.971Z,7.33
2019-03-25T07:53:53.346Z,6.90
2019-03-25T07:56:23.790Z,7.07
2019-03-25T07:58:54.161Z,6.33
2019-03-25T08:01:24.566Z,6.47
2019-03-25T08:03:55.029Z,5.93
2019-03-25T08:06:25.403Z,5.60
2019-03-25T08:09:03.664Z,6.30
2019-03-25T08:11:28.503Z,5.33
2019-03-25T08:13:58.947Z,5.57
2019-03-25T08:16:29.309Z,5.20
2019-03-25T08:18:59.684Z,5.47
2019-03-25T08:21:30.128Z,5.30
2019-03-25T08:24:00.486Z,6.40
2019-03-25T08:26:30.906Z,4.83
2019-03-25T08:29:01.263Z,4.80
2019-03-25T08:31:31.693Z,4.90
2019-03-25T08:34:02.678Z,5.00
2019-03-25T08:36:33.394Z,4.90
2019-03-25T08:39:05.627Z,4.83
2019-03-25T08:41:36.742Z,4.80
2019-03-25T08:44:07.824Z,4.63
2019-03-25T08:46:38.956Z,4.90
2019-03-25T08:49:11.939Z,4.60
2019-03-25T08:51:42.079Z,4.47
2019-03-25T08:54:12.435Z,4.43
2019-03-25T08:56:42.860Z,4.77
2019-03-25T08:59:13.269Z,4.77
2019-03-25T09:01:43.718Z,4.20
2019-03-25T09:04:14.090Z,3.97
2019-03-25T09:06:44.469Z,3.90
2019-03-25T09:09:14.851Z,5.00
2019-03-25T09:11:45.260Z,4.87
2019-03-25T09:14:15.636Z,5.20
2019-03-25T09:16:46.007Z,4.30
2019-03-25T09:19:16.410Z,4.93
2019-03-25T09:21:46.765Z,5.40
2019-03-25T09:24:17.130Z,5.20
2019-03-25T09:26:47.522Z,4.47
2019-03-25T09:29:20.231Z,4.50
2019-03-25T09:31:51.363Z,4.37
2019-03-25T09:34:21.710Z,4.53
2019-03-25T09:36:52.099Z,4.70
2019-03-25T09:39:22.492Z,3.90
2019-03-25T09:41:52.900Z,4.37
2019-03-25T09:44:23.258Z,4.07
2019-03-25T09:46:53.637Z,4.30
2019-03-25T09:49:24.215Z,3.80
2019-03-25T09:51:54.569Z,4.40
2019-03-25T09:54:25.039Z,5.17
2019-03-25T09:56:55.832Z,4.33
2019-03-25T09:59:26.222Z,4.30
2019-03-25T10:01:57.069Z,3.90
2019-03-25T10:04:27.544Z,4.27
2019-03-25T10:06:57.943Z,4.10
2019-03-25T10:09:28.320Z,4.30
2019-03-25T10:11:58.709Z,4.07
2019-03-25T10:14:29.098Z,4.70
2019-03-25T10:16:59.870Z,3.93
2019-03-25T10:19:30.328Z,4.17
2019-03-25T10:22:00.816Z,3.87
2019-03-25T10:24:31.177Z,4.57
2019-03-25T10:27:01.534Z,5.20
2019-03-25T10:29:32.113Z,4.13
2019-03-25T10:32:02.593Z,4.43
2019-03-25T10:34:32.961Z,3.57
2019-03-25T10:37:03.320Z,4.33
2019-03-25T10:39:33.689Z,3.83
2019-03-25T10:42:04.084Z,3.80
2019-03-25T10:44:34.464Z,3.43
2019-03-25T10:47:04.837Z,3.80
2019-03-25T10:49:35.225Z,4.53
2019-03-25T10:52:05.600Z,5.10
2019-03-25T10:54:36.123Z,4.50
2019-03-25T10:57:06.568Z,3.30
2019-03-25T10:59:37.940Z,3.67
2019-03-25T11:02:08.323Z,4.07
2019-03-25T11:04:38.673Z,3.40
2019-03-25T11:07:09.118Z,4.33
2019-03-25T11:09:39.578Z,4.03
2019-03-25T11:12:10.374Z,3.63
2019-03-25T11:14:40.748Z,3.80
2019-03-25T11:17:11.119Z,3.90
2019-03-25T11:19:41.495Z,3.80
2019-03-25T11:22:11.834Z,3.07
2019-03-25T11:24:42.241Z,4.20
2019-03-25T11:27:12.624Z,3.37
2019-03-25T11:29:43.204Z,3.03
2019-03-25T11:32:13.562Z,2.90
2019-03-25T11:34:43.929Z,2.93
2019-03-25T11:37:14.295Z,3.33
2019-03-25T11:39:44.844Z,3.77
2019-03-25T11:42:15.212Z,3.60
2019-03-25T11:44:45.549Z,3.87
2019-03-25T11:47:15.902Z,3.27
2019-03-25T11:49:46.408Z,3.47
2019-03-25T11:52:16.887Z,3.70
2019-03-25T11:54:47.301Z,3.07
2019-03-25T11:57:17.650Z,2.90
2019-03-25T11:59:48.002Z,3.10
2019-03-25T12:02:18.388Z,4.03
2019-03-25T12:04:48.751Z,1.93
2019-03-25T12:07:20.204Z,1.57
2019-03-25T12:09:50.552Z,1.30
2019-03-25T12:12:20.881Z,1.83
2019-03-25T12:14:51.223Z,1.60
2019-03-25T12:17:21.658Z,1.97
2019-03-25T12:19:52.003Z,2.90
2019-03-25T12:22:22.340Z,1.93
2019-03-25T12:24:52.678Z,2.47
2019-03-25T12:27:23.082Z,3.73
2019-03-25T12:29:53.481Z,3.20
2019-03-25T12:32:23.885Z,5.97
2019-03-25T12:34:54.253Z,4.07
2019-03-25T12:37:24.606Z,2.57
2019-03-25T12:39:54.955Z,2.03
2019-03-25T12:42:25.301Z,2.13
2019-03-25T12:44:55.648Z,1.93
2019-03-25T12:47:26.056Z,1.87
2019-03-25T12:49:56.405Z,4.07
2019-03-25T12:52:26.799Z,2.00
2019-03-25T12:54:57.156Z,1.50
2019-03-25T12:57:28.089Z,1.20
2019-03-25T12:59:58.458Z,1.67
2019-03-25T13:02:28.835Z,1.73
2019-03-25T13:04:59.199Z,1.30
2019-03-25T13:07:30.500Z,1.60
2019-03-25T13:10:00.871Z,1.40
2019-03-25T13:12:34.270Z,1.90
2019-03-25T13:15:08.676Z,1.37
2019-03-25T13:17:39.041Z,2.03
2019-03-25T13:20:09.461Z,1.83
2019-03-25T13:22:40.018Z,2.10
2019-03-25T13:25:10.367Z,2.47
2019-03-25T13:27:40.717Z,2.50
2019-03-25T13:30:15.754Z,2.80
2019-03-25T13:32:44.816Z,2.90
2019-03-25T13:35:15.212Z,2.90
2019-03-25T13:37:45.544Z,2.93
2019-03-25T13:40:15.895Z,3.63
2019-03-25T13:42:46.276Z,2.77
2019-03-25T13:45:16.638Z,3.50
2019-03-25T13:47:46.996Z,3.97
2019-03-25T13:50:17.352Z,3.60
2019-03-25T13:52:47.724Z,3.57
2019-03-25T13:55:18.075Z,3.13
2019-03-25T13:57:48.456Z,3.43
2019-03-25T14:00:22.074Z,2.90
2019-03-25T14:02:52.479Z,3.40
2019-03-25T14:05:23.147Z,3.43
2019-03-25T14:07:53.508Z,4.07
2019-03-25T14:10:23.870Z,5.10
2019-03-25T14:12:54.215Z,4.60
2019-03-25T14:15:24.585Z,4.77
2019-03-25T14:17:54.960Z,3.83
2019-03-25T14:20:28.183Z,4.70
2019-03-25T14:22:58.534Z,5.37
2019-03-25T14:25:28.882Z,4.40
2019-03-25T14:27:59.335Z,4.60
2019-03-25T14:30:29.995Z,4.73
2019-03-25T14:33:01.386Z,4.67
2019-03-25T14:35:31.762Z,3.93
2019-03-25T14:38:04.394Z,4.37
2019-03-25T14:40:34.882Z,4.50
2019-03-25T14:43:05.223Z,4.17
2019-03-25T14:45:35.618Z,4.20
2019-03-25T14:48:05.977Z,4.60
2019-03-25T14:50:38.039Z,6.87
2019-03-25T14:53:08.382Z,5.00
2019-03-25T14:55:38.743Z,8.17
2019-03-25T14:58:09.140Z,6.07
2019-03-25T15:00:39.498Z,2.27
2019-03-25T15:03:11.291Z,1.43
2019-03-25T15:05:42.668Z,1.60
2019-03-25T15:08:13.068Z,1.57
2019-03-25T15:10:53.180Z,1.70
2019-03-25T15:13:15.712Z,1.60
2019-03-25T15:15:46.198Z,2.00
2019-03-25T15:18:16.602Z,1.40
2019-03-25T15:20:48.026Z,2.10
2019-03-25T15:23:18.518Z,3.10
2019-03-25T15:25:48.879Z,3.13
2019-03-25T15:28:20.226Z,2.00
2019-03-25T15:30:50.620Z,2.77
2019-03-25T15:33:22.429Z,3.10
2019-03-25T15:35:53.751Z,3.50
2019-03-25T15:38:25.517Z,3.33
2019-03-25T15:40:56.093Z,3.63
2019-03-25T15:43:26.463Z,4.00
2019-03-25T15:45:56.818Z,4.90
2019-03-25T15:48:27.943Z,4.40
2019-03-25T15:50:58.307Z,3.50
2019-03-25T15:53:28.908Z,3.70
2019-03-25T15:55:59.306Z,3.50
2019-03-25T15:58:29.909Z,4.53
2019-03-25T16:01:01.537Z,4.00
2019-03-25T16:03:31.900Z,4.17
2019-03-25T16:06:02.255Z,3.37
2019-03-25T16:08:32.884Z,4.40
2019-03-25T16:11:03.317Z,5.03
2019-03-25T16:13:33.687Z,3.73
2019-03-25T16:16:04.077Z,3.67
2019-03-25T16:18:39.415Z,3.53
2019-03-25T16:21:10.156Z,3.53
2019-03-25T16:23:40.491Z,3.63
2019-03-25T16:26:10.848Z,3.47
2019-03-25T16:28:41.205Z,3.37
2019-03-25T16:31:12.647Z,5.03
2019-03-25T16:33:43.043Z,5.67
2019-03-25T16:36:13.521Z,5.00
2019-03-25T16:38:44.196Z,6.63
2019-03-25T16:41:16.890Z,5.97
2019-03-25T16:43:48.256Z,4.90
2019-03-25T16:46:18.794Z,5.80
2019-03-25T16:48:50.251Z,5.97
2019-03-25T16:51:20.767Z,4.80
2019-03-25T16:54:09.315Z,3.63
2019-03-25T16:56:39.696Z,4.97
2019-03-25T16:59:10.069Z,6.63
2019-03-25T17:01:40.784Z,7.57
2019-03-25T17:04:11.179Z,6.27
2019-03-25T17:06:42.998Z,4.93
2019-03-25T17:09:13.385Z,4.97
2019-03-25T17:11:44.837Z,4.77
2019-03-25T17:14:15.234Z,5.07
2019-03-25T17:16:46.357Z,3.70
2019-03-25T17:19:16.712Z,4.07
2019-03-25T17:21:57.712Z,4.50
2019-03-25T17:24:19.566Z,5.27
2019-03-25T17:26:50.193Z,5.50
2019-03-25T17:29:22.399Z,4.93
2019-03-25T17:31:53.194Z,4.73
2019-03-25T17:34:23.883Z,5.13
2019-03-25T17:36:54.381Z,4.67
2019-03-25T17:39:26.916Z,5.30
2019-03-25T17:41:57.482Z,5.30
2019-03-25T17:44:28.345Z,4.30
2019-03-25T17:46:58.730Z,4.73
2019-03-25T17:49:29.258Z,5.10
2019-03-25T17:52:01.182Z,5.30
2019-03-25T17:54:34.430Z,6.83
2019-03-25T17:57:04.851Z,4.63
2019-03-25T17:59:35.702Z,4.97
2019-03-25T18:02:06.104Z,5.67
2019-03-25T18:04:36.471Z,5.50
2019-03-25T18:07:06.967Z,6.43
2019-03-25T18:09:37.346Z,5.60
2019-03-25T18:12:07.794Z,4.77
2019-03-25T18:14:41.406Z,4.53
2019-03-25T18:17:13.228Z,4.20
2019-03-25T18:19:43.604Z,4.77
2019-03-25T18:22:14.296Z,5.90
2019-03-25T18:24:44.693Z,5.93
2019-03-25T18:27:15.017Z,7.57
2019-03-25T18:29:45.436Z,8.53
2019-03-25T18:32:15.997Z,7.27
2019-03-25T18:34:46.381Z,10.80
2019-03-25T18:37:16.751Z,8.43
2019-03-25T18:39:48.595Z,8.53
2019-03-25T18:42:21.746Z,9.87
2019-03-25T18:44:52.259Z,11.50
2019-03-25T18:47:22.715Z,9.30
2019-03-25T18:49:54.191Z,7.20
2019-03-25T18:52:25.641Z,5.43
2019-03-25T18:54:56.057Z,5.80
2019-03-25T18:57:26.405Z,5.20
2019-03-25T18:59:57.761Z,8.07
2019-03-25T19:02:28.754Z,7.47
2019-03-25T19:05:00.436Z,7.50
2019-03-25T19:07:32.915Z,6.47
2019-03-25T19:10:03.895Z,8.13
2019-03-25T19:12:34.291Z,7.13
2019-03-25T19:15:07.714Z,6.00
2019-03-25T19:17:38.560Z,4.77
2019-03-25T19:20:09.072Z,4.57
2019-03-25T19:22:39.892Z,4.73
2019-03-25T19:25:13.374Z,6.17
2019-03-25T19:27:43.761Z,4.00
2019-03-25T19:30:16.012Z,3.47
2019-03-25T19:32:46.409Z,3.43
2019-03-25T19:35:18.464Z,3.63
2019-03-25T19:37:48.822Z,6.13
2019-03-25T19:40:19.253Z,5.37
2019-03-25T19:42:51.273Z,3.70
2019-03-25T19:45:22.168Z,3.47
2019-03-25T19:47:56.075Z,5.17
2019-03-25T19:50:27.151Z,4.27
2019-03-25T19:52:58.918Z,3.90
2019-03-25T19:55:29.287Z,7.87
2019-03-25T19:58:02.466Z,5.60
2019-03-25T20:00:38.769Z,3.37
2019-03-25T20:03:09.252Z,10.00
2019-03-25T20:05:40.032Z,4.57
2019-03-25T20:08:10.375Z,3.73
2019-03-25T20:10:40.767Z,2.90
2019-03-25T20:13:12.157Z,3.93
2019-03-25T20:15:46.610Z,3.00
2019-03-25T20:18:16.137Z,2.87
2019-03-25T20:20:47.597Z,3.30
2019-03-25T20:23:19.004Z,4.73
2019-03-25T20:25:50.966Z,2.97
2019-03-25T20:28:22.141Z,3.00
2019-03-25T20:30:52.796Z,3.10
2019-03-25T20:33:23.566Z,4.63
2019-03-25T20:35:54.304Z,2.80
2019-03-25T20:38:25.457Z,3.50
2019-03-25T20:40:58.110Z,4.20
2019-03-25T20:43:30.239Z,3.40
2019-03-25T20:46:01.772Z,4.90
2019-03-25T20:48:33.601Z,4.13
2019-03-25T20:51:04.021Z,4.20
2019-03-25T20:53:34.571Z,4.73
2019-03-25T20:56:07.344Z,3.20
2019-03-25T20:58:37.884Z,3.30
2019-03-25T21:01:08.530Z,3.53
2019-03-25T21:03:40.570Z,5.80
2019-03-25T21:06:11.259Z,5.93
2019-03-25T21:08:42.068Z,4.20
2019-03-25T21:11:13.144Z,3.90
2019-03-25T21:13:43.963Z,6.80
2019-03-25T21:16:14.761Z,3.83
2019-03-25T21:18:45.144Z,4.73
2019-03-25T21:21:15.586Z,6.07
2019-03-25T21:23:45.939Z,4.97
2019-03-25T21:26:16.722Z,5.47
2019-03-25T21:28:48.827Z,5.13
2019-03-25T21:31:19.948Z,4.77
2019-03-25T21:33:51.982Z,5.03
2019-03-25T21:36:22.331Z,6.00
2019-03-25T21:38:53.212Z,6.03
2019-03-25T21:41:23.776Z,4.83
2019-03-25T21:43:54.154Z,4.80
2019-03-25T21:46:24.632Z,5.50
2019-03-25T21:48:55.014Z,10.63
2019-03-25T21:51:27.038Z,6.20
2019-03-25T21:53:59.164Z,5.60
2019-03-25T21:56:29.895Z,4.30
2019-03-25T21:59:00.527Z,6.27
2019-03-25T22:01:31.016Z,5.07
2019-03-25T22:04:01.372Z,5.30
2019-03-25T22:06:31.723Z,5.13
2019-03-25T22:09:02.087Z,4.70
2019-03-25T22:11:32.670Z,5.13
2019-03-25T22:14:04.156Z,5.17
2019-03-25T22:16:34.531Z,5.67
2019-03-25T22:19:04.883Z,5.57
2019-03-25T22:21:35.455Z,5.33
2019-03-25T22:24:05.837Z,5.97
2019-03-25T22:26:37.279Z,6.10
2019-03-25T22:29:07.731Z,5.43
2019-03-25T22:31:38.066Z,4.90
2019-03-25T22:34:08.403Z,5.43
2019-03-25T22:36:38.838Z,5.27
2019-03-25T22:39:09.186Z,5.13
2019-03-25T22:41:39.553Z,5.27
2019-03-25T22:44:10.992Z,4.93
2019-03-25T22:46:41.347Z,5.27
2019-03-25T22:49:11.708Z,5.17
2019-03-25T22:51:42.959Z,4.93
2019-03-25T22:54:13.330Z,4.50
2019-03-25T22:56:44.764Z,5.17
2019-03-25T22:59:15.153Z,4.87
2019-03-25T23:01:45.814Z,4.63
2019-03-25T23:04:16.171Z,4.43
2019-03-25T23:06:46.534Z,5.03
2019-03-25T23:09:16.886Z,4.77
2019-03-25T23:11:47.246Z,5.37
2019-03-25T23:14:17.672Z,5.90
2019-03-25T23:16:48.041Z,5.10
2019-03-25T23:19:18.391Z,5.17
2019-03-25T23:21:48.752Z,5.10
2019-03-25T23:24:19.112Z,9.27
2019-03-25T23:26:49.538Z,5.80
2019-03-25T23:29:19.873Z,5.13
2019-03-25T23:31:50.228Z,7.90
2019-03-25T23:34:20.571Z,5.60
2019-03-25T23:36:52.348Z,6.33
2019-03-25T23:39:25.109Z,8.23
2019-03-25T23:41:54.760Z,7.67
2019-03-25T23:44:25.110Z,7.20
2019-03-25T23:46:55.455Z,7.50
2019-03-25T23:49:25.798Z,6.57
2019-03-25T23:51:56.163Z,6.00
2019-03-25T23:54:26.537Z,7.93
2019-03-25T23:56:56.913Z,6.13
2019-03-25T23:59:27.272Z,5.37
